webcam facing ski center webcam facing ski center


webcam facing south webcam facing south


Thunder radar blitzortung!


Rain radar rain snow radar


Visit our other sites:

Hotel Skamnos

Arachova Weather Station

Skamnos Weather Station

Skamnos Weather2

Arachova Weather2

WU Skamnos

WU Arachova


Other Weather Sites:

Parnassos Snow Forecast

Parnassos Snow Report

Kelaria 1950m

Kelaria 2240m

Fterolaka 2080m



Extreme high temperature From: 29-06-2017 13:00 Until: 16:00 warning for: Extreme high temperature Level: Orange info button
HIGH AIR TEMPERATURES ARE EXPECTED.ΑΝΑΜΕΝΟΝΤΑΙ ΥΨΗΛΕΣ ΘΕΡΜΟΚΡΑΣΙΕΣ ΑΕΡΑ. 

Nearby METAR Reports

  
1089 - Arachova Meteo, Greece
Distance from station: S 10km
Updated: 29-06-2017 11:49
Few Clouds
Few Clouds  
 Wind from SW
Wind: SW 2 km/h
Temperature:  31°C
Dew Point:  15°C
Humidity:  38%
Barometer:  1011 hPa
Clouds:  Few Clouds
Visibility:  10 km
Cloud details:  Few Clouds 1859 m
2017/06/29 08:49 1089 290849Z 22501KT 9999 FEW061 31/15 Q1011
1155 - Arachova2, Greece
Distance from station: S 10km
Updated: 29-06-2017 11:49
Few Clouds
Few Clouds  
 Wind from SW
Wind: SW 4 km/h
Temperature:  29°C
Heat Index:  29°C
Dew Point:  16°C
Humidity:  45%
Barometer:  1013 hPa
Clouds:  Few Clouds
Visibility:  10 km
Cloud details:  Few Clouds 1646 m
2017/06/29 08:49 1155 290849Z 22502KT 9999 FEW054 29/16 Q1013
1184 - Arachova VillaFiloxenia, Greece
Distance from station: S 10km
Updated: 09-05-2017 15:04
NOT Current
Partly Cloudy
Partly Cloudy  
 Wind from calm
Wind: Calm
Temperature:  17°C
Dew Point:  9°C
Humidity:  59%
Barometer:  1007 hPa
Clouds:  Partly Cloudy
Visibility:  10 km
Cloud details:  Partly Cloudy 1006 m
2017/05/09 12:04 1184 091204Z 00000KT 9999 SCT033 17/09 Q1007
1250 - Parnassos Kelaria 1950m, Greece
Distance from station: E 3km
Updated: 29-06-2017 11:49
Partly Cloudy
Partly Cloudy  
 Wind from W
Wind: W 4 km/h
Temperature:  23°C
Dew Point:  10°C
Humidity:  44%
Barometer:  1014 hPa
Clouds:  Partly Cloudy
Visibility:  10 km
Cloud details:  Partly Cloudy 1524 m
2017/06/29 08:49 1250 290849Z 27002KT 9999 SCT050 23/10 Q1014
1126 - Parnassos Fterolaka 2080m, Greece
Distance from station: E 3km
Updated: 21-03-2015 01:04
NOT Current
Few Clouds
Few Clouds  
 Wind from calm
Wind: Calm
Temperature:  -11°C
Dew Point:  -11°C
Humidity:  100%
Barometer:  1019 hPa
Clouds:  Few Clouds
Visibility:  6 km
Cloud details:  Few Clouds 305 m
2015/03/20 23:04 1126 202304Z 00000KT 6000 FEW010 M11/M11 Q1019
1382 - Parnassos Helcules 2240m, Greece
Distance from station: E 3km
Updated: 20-04-2015 13:20
NOT Current
Fog
Fog  
 Wind from SW
Wind: SW 7 km/h
Temperature:  1°C
Wind Chill:  -2°C
Dew Point:  1°C
Humidity:  100%
Barometer:  1009 hPa
Summary:  Fog
Visibility:  5 km
2015/04/20 10:20 1382 201020Z 22504KT 5000 FG 01/01 Q1009
1219 - Anrikyra, Greece
Distance from station: S 40km
Updated: 29-06-2017 11:49
Few Clouds
Few Clouds  
 Wind from SSE
Wind: SSE 4 km/h
Temperature:  31°C
Heat Index:  34°C
Dew Point:  21°C
Humidity:  55%
Barometer:  1010 hPa
Clouds:  Few Clouds
Visibility:  9 km
Cloud details:  Few Clouds 1189 m
2017/06/29 08:49 1219 290849Z 15702KT 9000 FEW039 31/21 Q1010
1015 - Galaxeidi, Greece
Distance from station: S 40km
Updated: 29-06-2017 11:48
Clear
Clear  
 Wind from SSE
Wind: SSE 6 km/h
Temperature:  29°C
Heat Index:  30°C
Dew Point:  19°C
Humidity:  55%
Barometer:  1021 hPa
Clouds:  Clear
Visibility:  10 km
2017/06/29 08:48 1015 290848Z 15703KT 9999 SKC 29/19 Q1021
1088 - Amfikleia, Greece
Distance from station: N 10km
Updated: 16-06-2017 17:34
NOT Current
Thunderstorm, Heavy Rain, Overcast
Thunderstorm, Heavy Rain, Overcast  
 Wind from calm
Wind: Calm
Temperature:  21°C
Dew Point:  19°C
Humidity:  88%
Barometer:  1014 hPa
Summary:  Thunderstorm, Heavy Rain
Clouds:  Overcast
Visibility:  7 km
Cloud details:  Overcast 1829 m
2017/06/16 14:34 1088 161434Z 00000KT 7000 TS +RA OVC060 21/19 Q1014
1337 - Polydroso, Greece
Distance from station: N 10km
Updated: 29-06-2017 11:49
Clear
Clear  
 Wind from calm
Wind: Calm
Temperature:  33°C
Heat Index:  35°C
Dew Point:  20°C
Humidity:  46%
Barometer:  1011 hPa
Clouds:  Clear
Visibility:  10 km
2017/06/29 08:49 1337 290849Z 00000KT 9999 SKC 33/20 Q1011

Script developed by  Saratoga-weather.org Adapted for the template by  Weerstation Leuven